Time;durP1;ratioP1;P1;durP2;ratioP2;P2;SDS_P1;SDS_P2;PMS_P1;PMS_P2;Temp;Humidity;BMP_temperature;BMP_pressure;BME280_temperature;BME280_humidity;BME280_pressure;Samples;Min_cycle;Max_cycle;Signal;HPM_P1;HPM_P2
2023/01/30 00:01:46;;;;;;;25.00;9.90;;;;;;;-1.69;100.00;101025.33;106892;1285;58222;-81
2023/01/30 00:04:12;;;;;;;23.60;9.70;;;;;;;-1.70;100.00;101023.58;106988;1285;74783;-81
2023/01/30 00:06:39;;;;;;;26.50;9.50;;;;;;;-1.76;100.00;101019.77;107017;1285;58189;-81
2023/01/30 00:09:04;;;;;;;27.50;10.10;;;;;;;-1.76;100.00;101015.95;106812;1284;58271;-81
2023/01/30 00:11:32;;;;;;;22.70;9.50;;;;;;;-1.78;100.00;101014.81;106911;1285;58401;-81
2023/01/30 00:13:58;;;;;;;24.90;9.30;;;;;;;-1.79;100.00;101013.24;106897;1286;58415;-81
2023/01/30 00:16:27;;;;;;;24.70;9.50;;;;;;;-1.79;100.00;101010.59;106833;1286;58263;-81
2023/01/30 00:18:52;;;;;;;23.20;9.30;;;;;;;-1.79;100.00;101014.16;106853;1286;73614;-81
2023/01/30 00:21:18;;;;;;;28.70;9.80;;;;;;;-1.81;100.00;101010.83;106703;1285;58497;-81
2023/01/30 00:23:43;;;;;;;22.80;9.60;;;;;;;-1.78;100.00;101009.13;106774;1286;69755;-81
2023/01/30 00:26:10;;;;;;;26.70;10.10;;;;;;;-1.84;100.00;101009.71;106622;1284;58342;-81
2023/01/30 00:28:35;;;;;;;25.50;10.20;;;;;;;-1.89;100.00;101009.05;106881;1284;58222;-81
2023/01/30 00:31:01;;;;;;;25.70;9.60;;;;;;;-1.92;100.00;101004.11;106747;1286;58556;-81
2023/01/30 00:33:35;;;;;;;26.50;9.50;;;;;;;-1.93;100.00;101005.43;106791;1285;62660;-81
2023/01/30 00:36:04;;;;;;;23.10;9.50;;;;;;;-1.94;100.00;101002.61;106889;1285;60183;-81
2023/01/30 00:38:29;;;;;;;25.80;9.60;;;;;;;-1.95;100.00;101005.54;106768;1285;74669;-81
2023/01/30 00:40:55;;;;;;;24.40;10.00;;;;;;;-1.95;100.00;101000.91;106786;1285;58993;-80
2023/01/30 00:49:37;;;;;;;24.40;9.30;;;;;;;-2.06;100.00;100996.86;106316;1291;59507;-81
2023/01/30 00:52:06;;;;;;;26.00;9.10;;;;;;;-2.09;100.00;101002.05;106263;1292;73692;-80
2023/01/30 00:54:32;;;;;;;25.70;10.00;;;;;;;-2.11;100.00;100999.83;106261;1291;73535;-81
2023/01/30 00:56:57;;;;;;;24.30;9.50;;;;;;;-2.12;100.00;101002.23;106222;1292;58410;-81
2023/01/30 00:59:23;;;;;;;25.80;9.80;;;;;;;-2.14;100.00;101004.23;106143;1295;58468;-81
2023/01/30 01:01:51;;;;;;;22.50;8.60;;;;;;;-2.17;100.00;101001.97;106174;1292;58354;-81
2023/01/30 01:04:17;;;;;;;20.90;8.70;;;;;;;-2.17;100.00;100997.15;106212;1290;58205;-80
2023/01/30 01:06:42;;;;;;;30.70;10.30;;;;;;;-2.18;100.00;100991.83;106191;1292;58319;-81
2023/01/30 01:09:08;;;;;;;26.10;10.80;;;;;;;-2.19;100.00;100987.22;106008;1292;58369;-81
2023/01/30 01:11:33;;;;;;;28.00;10.40;;;;;;;-2.18;100.00;100987.12;105915;1294;58329;-81
2023/01/30 01:14:03;;;;;;;21.90;9.30;;;;;;;-2.17;100.00;100986.09;106020;1292;74745;-81
2023/01/30 01:16:30;;;;;;;23.70;9.40;;;;;;;-2.17;100.00;100991.88;105951;1295;74309;-81
2023/01/30 01:19:02;;;;;;;22.50;9.10;;;;;;;-2.15;100.00;100991.30;106032;1294;72785;-81
2023/01/30 01:21:27;;;;;;;24.40;9.80;;;;;;;-2.15;100.00;100987.80;105993;1293;62774;-81
2023/01/30 01:23:56;;;;;;;25.20;9.00;;;;;;;-2.16;100.00;100987.91;105850;1293;58450;-81
2023/01/30 01:26:24;;;;;;;27.10;10.40;;;;;;;-2.18;100.00;100994.09;106190;1289;72766;-80
2023/01/30 01:28:57;;;;;;;24.50;9.20;;;;;;;-2.19;100.00;100997.95;106351;1289;73208;-81
2023/01/30 01:31:25;;;;;;;25.80;9.10;;;;;;;-2.19;100.00;100999.33;106222;1289;73123;-81
2023/01/30 01:33:51;;;;;;;28.50;10.20;;;;;;;-2.19;100.00;100994.41;106269;1286;61986;-81
2023/01/30 01:36:17;;;;;;;25.50;9.50;;;;;;;-2.21;100.00;100995.51;106598;1288;58526;-81
2023/01/30 01:38:42;;;;;;;28.80;10.00;;;;;;;-2.21;100.00;100993.22;106711;1286;58391;-80
2023/01/30 01:41:10;;;;;;;22.40;8.50;;;;;;;-2.21;100.00;100998.51;106771;1285;58317;-81
2023/01/30 01:43:57;;;;;;;25.90;9.10;;;;;;;-2.19;100.00;100999.52;106764;1286;58292;-81
2023/01/30 01:46:28;;;;;;;26.50;9.80;;;;;;;-2.21;100.00;100994.94;107036;1286;61811;-81
2023/01/30 01:48:57;;;;;;;28.50;10.90;;;;;;;-2.20;100.00;100996.63;107060;1285;60140;-81
2023/01/30 01:51:33;;;;;;;27.20;9.50;;;;;;;-2.21;100.00;100998.27;106831;1284;74792;-81
2023/01/30 01:54:06;;;;;;;22.30;9.00;;;;;;;-2.19;100.00;100997.26;106700;1285;72354;-81
2023/01/30 01:56:37;;;;;;;;;;;;;;;-2.18;100.00;100997.27;107012;1284;73673;-81
2023/01/30 01:59:12;;;;;;;24.90;9.40;;;;;;;-2.20;100.00;100996.83;106953;1283;61805;-81
2023/01/30 02:01:40;;;;;;;33.10;11.10;;;;;;;-2.20;100.00;100992.54;107026;1284;60886;-82
2023/01/30 02:04:09;;;;;;;30.60;12.00;;;;;;;-2.19;100.00;100988.27;106762;1286;73842;-81
2023/01/30 02:06:46;;;;;;;28.60;10.80;;;;;;;-2.25;100.00;100987.65;106503;1284;72732;-81
2023/01/30 02:09:17;;;;;;;34.20;13.20;;;;;;;-2.26;100.00;100987.12;106574;1285;71601;-81
2023/01/30 02:12:14;;;;;;;75.50;22.90;;;;;;;-2.26;100.00;100983.20;106698;1283;62527;-81
2023/01/30 02:14:49;;;;;;;97.60;26.90;;;;;;;-2.29;100.00;100983.16;106487;1288;60079;-81
2023/01/30 02:17:21;;;;;;;43.30;14.20;;;;;;;-2.28;100.00;100978.42;105875;1291;74666;-81
2023/01/30 02:20:00;;;;;;;80.70;23.80;;;;;;;-2.34;100.00;100980.30;105705;1292;72718;-81
2023/01/30 02:22:44;;;;;;;55.30;16.30;;;;;;;-2.35;100.00;100980.47;105942;1292;71777;-80
2023/01/30 02:25:12;;;;;;;;;;;;;;;-2.36;100.00;100974.59;105844;1292;59974;-80
2023/01/30 02:28:09;;;;;;;80.00;25.30;;;;;;;-2.34;100.00;100975.71;106132;1292;58499;-80
2023/01/30 02:31:25;;;;;;;36.30;13.60;;;;;;;-2.35;100.00;100971.80;105830;1295;73604;-81
2023/01/30 02:34:08;;;;;;;62.50;19.90;;;;;;;-2.33;100.00;100971.23;105273;1303;73541;-81
2023/01/30 02:37:09;;;;;;;74.90;25.30;;;;;;;-2.33;100.00;100963.54;105094;1305;71881;-81
2023/01/30 02:39:57;;;;;;;43.50;16.00;;;;;;;-2.31;100.00;100962.42;105261;1303;62312;-81
2023/01/30 02:42:48;;;;;;;27.70;11.10;;;;;;;-2.26;100.00;100962.31;105077;1302;61782;-81
2023/01/30 02:45:52;;;;;;;23.20;8.80;;;;;;;-2.24;100.00;100965.08;105511;1298;73274;-81
2023/01/30 02:48:53;;;;;;;;;;;;;;;;;;;;;
2023/01/30 02:51:32;;;;;;;23.20;9.00;;;;;;;-2.23;100.00;100969.31;105255;1304;74208;-79
2023/01/30 02:54:09;;;;;;;21.20;8.80;;;;;;;-2.22;100.00;100978.95;105130;1304;60680;-79
2023/01/30 02:56:54;;;;;;;22.90;9.70;;;;;;;-2.23;100.00;100978.84;105122;1302;60501;-79
2023/01/30 03:00:01;;;;;;;39.00;12.80;;;;;;;-2.23;100.00;100980.92;105447;1302;72928;-79
2023/01/30 03:02:42;;;;;;;38.40;12.70;;;;;;;-2.24;100.00;100982.83;104917;1308;74783;-79
2023/01/30 03:05:32;;;;;;;42.60;15.10;;;;;;;-2.23;100.00;100982.34;104961;1309;73705;-79
2023/01/30 03:08:33;;;;;;;36.50;14.30;;;;;;;-2.21;100.00;100980.16;105032;1306;61889;-79
2023/01/30 03:11:23;;;;;;;28.90;10.60;;;;;;;-2.17;100.00;100981.75;105301;1303;60916;-79
2023/01/30 03:14:26;;;;;;;23.10;8.80;;;;;;;-2.18;100.00;100980.78;105127;1302;74619;-79
2023/01/30 03:17:03;;;;;;;22.20;9.00;;;;;;;-2.21;100.00;100978.94;104847;1308;73533;-79
2023/01/30 03:19:31;;;;;;;23.50;9.60;;;;;;;-2.19;100.00;100975.61;104824;1308;72968;-79
2023/01/30 03:22:07;;;;;;;19.80;8.10;;;;;;;-2.16;100.00;100973.70;105417;1300;61695;-78
2023/01/30 03:28:26;;;;;;;24.40;9.80;;;;;;;-2.09;100.00;100976.62;103168;1290;600740;-80
2023/01/30 08:07:09;;;;;;;13.00;8.20;;;;;;;20.23;29.01;100947.27;104189;1281;614187;-80
2023/01/30 08:09:34;;;;;;;14.50;8.80;;;;;;;19.63;29.58;100945.44;104354;1283;60863;-80
2023/01/30 08:12:00;;;;;;;14.90;9.40;;;;;;;18.60;29.74;100946.14;103877;1283;62308;-80
2023/01/30 08:14:27;;;;;;;17.90;9.40;;;;;;;18.32;30.05;100943.61;104624;1281;60409;-80
2023/01/30 08:16:54;;;;;;;14.90;9.40;;;;;;;18.35;30.58;100933.44;104385;1281;60490;-80
2023/01/30 08:19:20;;;;;;;15.70;9.50;;;;;;;18.46;29.93;100928.26;104105;1280;291364;-81
2023/01/30 08:21:46;;;;;;;15.10;9.50;;;;;;;18.88;30.05;100928.18;104510;1279;60410;-81
2023/01/30 08:27:40;;;;;;;18.60;11.10;;;;;;;19.87;28.24;100920.95;104799;1276;72068;-81
2023/01/30 08:30:06;;;;;;;14.10;9.70;;;;;;;20.10;28.22;100916.10;104721;1277;60522;-81
2023/01/30 08:32:32;;;;;;;14.40;9.20;;;;;;;20.60;28.79;100918.24;104714;1279;60441;-81
2023/01/30 08:34:58;;;;;;;12.40;8.20;;;;;;;20.32;27.04;100919.05;104364;1280;60402;-81
2023/01/30 08:37:24;;;;;;;9.10;6.20;;;;;;;20.35;27.81;100913.06;104858;1279;60412;-81
2023/01/30 08:39:49;;;;;;;12.00;6.90;;;;;;;18.99;26.88;100916.03;104972;1276;60261;-81
2023/01/30 08:42:15;;;;;;;11.20;6.90;;;;;;;17.72;27.52;100916.60;104330;1283;62039;-81
2023/01/30 08:48:11;;;;;;;11.80;6.50;;;;;;;12.67;30.58;100911.88;103367;1286;600154;-81
2023/01/30 08:50:36;;;;;;;11.50;6.20;;;;;;;10.45;32.49;100916.13;103463;1291;60488;-80
2023/01/30 08:56:24;;;;;;;15.30;7.30;;;;;;;7.84;36.32;100913.71;103376;1291;73723;-81
2023/01/30 08:58:50;;;;;;;10.70;5.20;;;;;;;6.88;36.92;100908.26;103334;1294;60418;-81
2023/01/30 09:01:15;;;;;;;12.30;5.20;;;;;;;5.75;38.32;100908.02;103242;1286;261671;-83
2023/01/30 09:03:41;;;;;;;12.00;5.00;;;;;;;4.64;40.97;100905.31;103469;1285;60421;-81
2023/01/30 09:06:08;;;;;;;13.80;6.30;;;;;;;4.13;42.37;100900.54;103757;1286;60517;-81
2023/01/30 09:08:34;;;;;;;14.90;5.40;;;;;;;3.70;42.94;100897.09;103372;1286;60606;-81
2023/01/30 09:14:22;;;;;;;12.40;5.20;;;;;;;2.69;46.10;100884.06;103551;1287;60409;-81
2023/01/30 09:16:54;;;;;;;17.50;6.40;;;;;;;2.53;45.99;100885.73;103505;1286;60350;-81
2023/01/30 09:19:24;;;;;;;16.20;6.80;;;;;;;2.13;46.92;100878.05;103525;1287;73847;-81
2023/01/30 09:28:34;;;;;;;13.50;5.20;;;;;;;1.43;50.14;100859.88;103668;1285;60418;-81
2023/01/30 09:31:03;;;;;;;11.20;4.70;;;;;;;1.43;49.67;100856.56;103300;1288;60313;-81
2023/01/30 09:33:28;;;;;;;14.60;5.00;;;;;;;1.32;50.33;100855.42;103298;1289;74717;-80
2023/01/30 09:35:55;;;;;;;10.90;4.40;;;;;;;1.18;50.36;100854.37;103449;1285;60530;-81
2023/01/30 09:38:20;;;;;;;13.20;5.70;;;;;;;1.10;50.52;100849.20;103516;1288;60415;-81
2023/01/30 09:54:45;;;;;;;15.60;5.40;;;;;;;0.92;52.60;100816.55;103597;1288;71622;-82
2023/01/30 09:57:14;;;;;;;13.40;5.80;;;;;;;0.94;52.71;100809.58;102908;1291;60444;-81
2023/01/30 09:59:51;;;;;;;12.30;6.00;;;;;;;0.79;53.24;100805.53;102900;1297;61674;-81
2023/01/30 10:02:41;;;;;;;13.70;6.60;;;;;;;0.77;53.73;100802.65;102880;1296;74255;-81
2023/01/30 10:05:08;;;;;;;15.00;6.40;;;;;;;0.74;53.98;100802.88;102902;1296;73779;-81
2023/01/30 10:11:39;;;;;;;16.30;6.40;;;;;;;0.70;54.97;100793.66;102368;1297;61096;-81
2023/01/30 10:14:29;;;;;;;13.40;6.30;;;;;;;0.65;55.02;100790.19;102288;1297;61395;-81
2023/01/30 10:17:26;;;;;;;13.60;6.10;;;;;;;0.55;55.55;100790.50;102374;1299;72955;-81
2023/01/30 10:20:10;;;;;;;13.00;6.10;;;;;;;0.52;57.64;100787.08;102435;1297;72286;-81
2023/01/30 10:22:57;;;;;;;13.60;6.30;;;;;;;0.62;56.63;100778.13;102705;1297;73081;-82
2023/01/30 10:25:33;;;;;;;15.30;5.60;;;;;;;0.69;56.35;100768.47;102210;1304;60328;-81
2023/01/30 10:28:08;;;;;;;14.50;5.90;;;;;;;0.79;56.65;100766.31;102506;1300;60522;-82
2023/01/30 10:30:34;;;;;;;16.10;6.80;;;;;;;0.81;56.47;100766.59;102687;1298;74378;-82
2023/01/30 10:33:27;;;;;;;14.20;6.20;;;;;;;0.80;56.78;100764.73;102624;1296;60539;-82
2023/01/30 10:36:10;;;;;;;17.40;6.60;;;;;;;0.81;56.76;100756.34;103045;1291;73203;-82
2023/01/30 10:38:51;;;;;;;12.00;5.80;;;;;;;0.85;56.63;100755.11;103005;1297;60871;-82
2023/01/30 10:41:30;;;;;;;14.90;6.20;;;;;;;0.87;56.10;100749.20;102984;1292;60669;-83
2023/01/30 10:47:31;;;;;;;15.70;6.20;;;;;;;1.03;56.96;100728.55;103000;1285;74946;-81
2023/01/30 10:50:13;;;;;;;13.20;5.70;;;;;;;1.08;57.14;100725.19;103749;1286;74016;-82
2023/01/30 10:52:44;;;;;;;16.30;6.20;;;;;;;1.15;57.54;100720.91;103604;1286;60571;-82
2023/01/30 10:55:30;;;;;;;23.80;9.20;;;;;;;1.16;57.76;100723.82;103648;1284;61487;-81
2023/01/30 10:58:04;;;;;;;14.50;5.90;;;;;;;1.16;58.34;100723.16;103635;1286;74140;-83
2023/01/30 11:01:03;;;;;;;12.30;5.60;;;;;;;1.15;58.65;100716.87;103580;1286;74000;-82
2023/01/30 11:06:54;;;;;;;13.60;5.90;;;;;;;1.11;58.42;100708.17;103614;1286;60440;-81
2023/01/30 11:09:20;;;;;;;12.30;6.00;;;;;;;1.15;58.74;100706.41;103737;1285;60398;-82
2023/01/30 11:11:50;;;;;;;14.80;6.30;;;;;;;1.15;59.08;100706.95;103636;1291;60418;-83
2023/01/30 11:14:16;;;;;;;13.90;6.20;;;;;;;1.10;59.31;100704.95;103612;1286;74860;-82
2023/01/30 11:16:52;;;;;;;15.90;5.90;;;;;;;1.02;59.62;100698.73;103560;1288;60411;-82
2023/01/30 11:19:22;;;;;;;16.40;6.70;;;;;;;1.02;60.01;100698.48;103652;1284;60690;-83
2023/01/30 11:21:53;;;;;;;17.80;7.10;;;;;;;1.07;59.61;100696.15;103582;1284;60389;-82
2023/01/30 11:24:44;;;;;;;15.60;6.90;;;;;;;1.07;59.93;100690.45;103652;1290;71644;-81
2023/01/30 11:27:15;;;;;;;18.30;7.10;;;;;;;1.10;59.70;100689.08;103670;1285;74701;-82
2023/01/30 11:29:41;;;;;;;18.50;7.10;;;;;;;1.09;59.66;100682.83;103629;1286;74088;-82
2023/01/30 11:32:27;;;;;;;19.30;7.60;;;;;;;1.07;60.03;100678.57;103640;1285;60394;-82
2023/01/30 11:41:41;;;;;;;18.70;7.90;;;;;;;0.97;60.64;100662.73;103725;1286;74910;-84
2023/01/30 11:47:29;;;;;;;24.60;11.30;;;;;;;0.95;61.13;100660.01;103726;1284;60771;-82
2023/01/30 11:50:01;;;;;;;22.30;8.70;;;;;;;0.98;61.37;100658.34;103695;1284;60431;-83
2023/01/30 11:52:35;;;;;;;21.60;8.90;;;;;;;0.96;61.94;100654.21;103421;1288;74336;-82
2023/01/30 11:55:11;;;;;;;20.70;8.20;;;;;;;0.92;61.11;100650.23;103645;1285;75036;-82
2023/01/30 11:57:44;;;;;;;19.20;7.80;;;;;;;0.85;61.70;100649.20;103105;1286;74470;-82
2023/01/30 12:03:33;;;;;;;19.00;8.20;;;;;;;0.86;62.79;100646.77;103625;1285;60392;-82
2023/01/30 12:09:35;;;;;;;17.40;6.20;;;;;;;0.90;63.38;100643.69;103605;1288;72166;-82
2023/01/30 12:15:33;;;;;;;18.50;7.10;;;;;;;0.86;63.00;100639.90;103648;1285;60379;-83
2023/01/30 12:18:08;;;;;;;21.40;8.30;;;;;;;0.82;63.26;100633.84;103070;1293;60749;-82
2023/01/30 12:21:08;;;;;;;18.50;6.60;;;;;;;0.80;63.50;100639.83;103640;1288;74229;-83
2023/01/30 12:24:04;;;;;;;48.60;17.70;;;;;;;0.76;63.73;100635.64;103830;1285;75053;-82
2023/01/30 12:26:40;;;;;;;19.40;7.60;;;;;;;0.78;64.67;100633.86;103409;1287;73013;-82
2023/01/30 12:34:41;;;;;;;18.30;7.90;;;;;;;0.83;65.31;100624.87;103681;1284;600743;-83
2023/01/30 12:37:37;;;;;;;23.50;9.80;;;;;;;0.84;65.29;100623.00;103731;1286;60626;-83
2023/01/30 12:40:21;;;;;;;17.80;7.60;;;;;;;0.81;66.37;100625.48;103833;1286;60502;-82
2023/01/30 12:42:58;;;;;;;25.70;9.10;;;;;;;0.77;66.84;100620.14;103761;1285;71698;-83
2023/01/30 12:45:25;;;;;;;18.80;7.00;;;;;;;0.74;67.22;100616.86;103516;1286;73228;-82
2023/01/30 12:48:30;;;;;;;27.50;11.50;;;;;;;0.71;67.94;100617.08;103707;1283;234332;-83
2023/01/30 12:51:04;;;;;;;16.30;7.20;;;;;;;0.73;67.62;100613.30;103951;1284;60409;-82
2023/01/30 12:53:46;;;;;;;17.20;6.70;;;;;;;0.73;67.78;100611.53;104028;1282;61641;-82
2023/01/30 12:56:40;;;;;;;18.90;6.70;;;;;;;0.71;67.96;100612.27;103999;1285;73556;-82
2023/01/30 12:59:29;;;;;;;19.10;7.20;;;;;;;0.69;67.49;100605.85;103690;1286;74814;-83
2023/01/30 13:02:06;;;;;;;20.50;7.30;;;;;;;0.66;68.28;100606.18;103531;1286;73863;-82
2023/01/30 13:05:03;;;;;;;25.20;10.00;;;;;;;0.64;69.38;100606.63;103165;1292;60680;-82
2023/01/30 13:07:53;;;;;;;21.50;8.30;;;;;;;0.64;70.14;100606.02;103623;1288;61492;-82
2023/01/30 13:10:35;;;;;;;17.90;7.10;;;;;;;0.63;70.20;100599.45;103397;1288;73441;-82
2023/01/30 13:13:26;;;;;;;20.90;8.50;;;;;;;0.61;70.43;100594.83;103212;1286;74731;-82
2023/01/30 13:16:19;;;;;;;15.70;7.30;;;;;;;0.56;70.62;100595.60;103761;1286;73870;-82
2023/01/30 13:18:59;;;;;;;18.70;6.60;;;;;;;0.52;71.00;100592.41;103465;1286;60873;-82
2023/01/30 13:21:33;;;;;;;19.90;7.60;;;;;;;0.49;70.64;100585.40;103542;1286;60801;-82
2023/01/30 13:24:14;;;;;;;17.60;7.60;;;;;;;0.42;70.21;100583.20;103590;1286;74450;-83
2023/01/30 17:07:34;;;;;;;83.40;31.70;;;;;;;-6.52;100.00;100557.48;103993;1282;613403;-83
2023/01/30 17:09:59;;;;;;;81.80;30.00;;;;;;;-6.33;100.00;100556.32;104043;1280;139882;-83
2023/01/30 17:12:42;;;;;;;89.00;31.30;;;;;;;-6.28;100.00;100557.41;104260;1284;60849;-83
2023/01/30 17:15:10;;;;;;;79.10;30.60;;;;;;;-6.25;100.00;100557.49;104281;1282;73330;-83
2023/01/30 17:17:37;;;;;;;88.00;30.70;;;;;;;-6.24;100.00;100558.89;104230;1286;75063;-83
2023/01/30 17:23:23;;;;;;;87.30;33.20;;;;;;;-6.18;100.00;100554.96;103231;1289;615455;-83
2023/01/30 17:25:49;;;;;;;82.90;31.20;;;;;;;-6.19;100.00;100555.21;103046;1292;60358;-83
2023/01/30 17:28:23;;;;;;;78.20;29.70;;;;;;;-6.17;100.00;100549.11;106073;1292;58081;-84
2023/01/30 17:30:49;;;;;;;83.70;29.50;;;;;;;-6.16;100.00;100544.98;105746;1292;72232;-83
2023/01/30 17:33:14;;;;;;;84.10;31.50;;;;;;;-6.12;100.00;100540.61;106059;1292;58252;-84
2023/01/30 17:35:40;;;;;;;97.70;38.20;;;;;;;-6.08;100.00;100537.76;106035;1289;184382;-84
2023/01/30 17:38:06;;;;;;;83.10;33.90;;;;;;;-6.03;100.00;100532.59;106188;1289;58288;-81
2023/01/30 17:40:34;;;;;;;82.50;33.00;;;;;;;-5.99;100.00;100533.53;106122;1289;58339;-81
2023/01/30 17:43:00;;;;;;;87.50;34.30;;;;;;;-5.97;100.00;100534.16;106285;1291;58202;-81
2023/01/30 17:45:26;;;;;;;100.60;39.70;;;;;;;-5.95;100.00;100534.12;106286;1289;58170;-81
2023/01/30 17:47:52;;;;;;;100.10;35.80;;;;;;;-5.89;100.00;100534.48;106220;1289;58258;-81
2023/01/30 17:50:18;;;;;;;89.60;33.80;;;;;;;-5.86;100.00;100535.54;106168;1288;58134;-81
2023/01/30 17:52:46;;;;;;;92.00;34.60;;;;;;;-5.86;100.00;100534.11;106377;1289;58596;-81
2023/01/30 17:55:13;;;;;;;87.50;33.70;;;;;;;-5.86;100.00;100531.50;106385;1288;58212;-81
2023/01/30 17:57:42;;;;;;;93.50;34.70;;;;;;;-5.85;100.00;100530.34;106214;1289;58279;-80
2023/01/30 18:00:14;;;;;;;93.60;34.20;;;;;;;-5.84;100.00;100532.68;106373;1289;72199;-81
2023/01/30 18:02:40;;;;;;;92.30;35.00;;;;;;;-5.84;100.00;100530.05;106279;1289;63329;-81
2023/01/30 18:05:05;;;;;;;95.10;38.10;;;;;;;-5.83;100.00;100525.57;106740;1286;58235;-81
2023/01/30 18:07:31;;;;;;;100.10;36.60;;;;;;;-5.84;100.00;100523.49;106550;1286;58414;-81
2023/01/30 18:09:57;;;;;;;94.10;35.60;;;;;;;-5.85;100.00;100524.38;106747;1286;58437;-81
2023/01/30 18:12:25;;;;;;;92.80;37.20;;;;;;;-5.85;100.00;100523.02;106183;1289;58268;-81
2023/01/30 18:14:53;;;;;;;107.20;39.30;;;;;;;-5.85;100.00;100525.30;106423;1288;58262;-81
2023/01/30 18:17:19;;;;;;;103.00;38.30;;;;;;;-5.84;100.00;100525.88;106350;1289;58092;-81
2023/01/30 18:19:47;;;;;;;95.70;37.10;;;;;;;-5.84;100.00;100525.16;106442;1288;58493;-81
2023/01/30 18:22:15;;;;;;;101.00;38.10;;;;;;;-5.83;100.00;100526.33;106460;1289;74183;-81
2023/01/30 18:24:41;;;;;;;92.20;36.80;;;;;;;-5.83;100.00;100523.02;106073;1289;73299;-81
2023/01/30 18:27:06;;;;;;;99.50;38.30;;;;;;;-5.84;100.00;100519.95;106242;1289;58288;-80
2023/01/30 18:29:32;;;;;;;101.60;38.50;;;;;;;-5.89;100.00;100513.06;106394;1288;58721;-81
2023/01/30 18:32:03;;;;;;;102.60;38.60;;;;;;;-5.88;100.00;100516.29;106206;1288;58305;-81
2023/01/30 18:34:29;;;;;;;98.00;38.50;;;;;;;-5.87;100.00;100512.69;106484;1288;73405;-80
2023/01/30 18:36:55;;;;;;;100.20;36.60;;;;;;;-5.87;100.00;100507.10;106392;1289;58674;-81
2023/01/30 18:39:20;;;;;;;100.00;35.80;;;;;;;-5.89;100.00;100504.87;106015;1294;58263;-81
2023/01/30 18:41:46;;;;;;;92.20;36.10;;;;;;;-5.92;100.00;100505.55;106449;1288;58292;-80
2023/01/30 18:44:12;;;;;;;92.10;36.50;;;;;;;-5.92;100.00;100498.55;106930;1286;58261;-81
2023/01/30 18:46:38;;;;;;;94.80;36.60;;;;;;;-5.90;100.00;100496.90;107052;1285;58081;-80
2023/01/30 18:49:03;;;;;;;98.00;37.30;;;;;;;-5.84;100.00;100497.00;106829;1285;62031;-81
2023/01/30 18:51:39;;;;;;;93.60;36.30;;;;;;;-5.75;100.00;100491.39;106878;1286;58085;-81
2023/01/30 18:54:09;;;;;;;101.20;37.50;;;;;;;-5.63;100.00;100492.77;107053;1286;72658;-80
2023/01/30 18:56:35;;;;;;;106.10;37.00;;;;;;;-5.49;100.00;100486.76;106459;1286;74366;-80
2023/01/30 18:59:06;;;;;;;98.40;36.60;;;;;;;-5.29;100.00;100484.87;106699;1284;58074;-81
2023/01/30 19:01:41;;;;;;;96.60;36.00;;;;;;;-5.11;100.00;100489.13;106849;1284;63176;-81
2023/01/30 19:04:12;;;;;;;85.20;31.70;;;;;;;-4.96;100.00;100479.16;106384;1289;60319;-81
2023/01/30 19:06:44;;;;;;;91.70;33.70;;;;;;;-4.81;100.00;100471.61;106208;1288;73912;-83
2023/01/30 19:09:17;;;;;;;90.10;33.10;;;;;;;-4.63;100.00;100470.89;106296;1288;74599;-81
2023/01/30 19:14:54;;;;;;;66.90;26.00;;;;;;;-4.30;100.00;100464.20;106420;1288;61646;-81
2023/01/30 19:17:23;;;;;;;69.80;25.50;;;;;;;-4.14;100.00;100461.95;106168;1290;60484;-81
2023/01/30 19:19:58;;;;;;;;;;;;;;;;;;;;;
2023/01/30 19:22:27;;;;;;;62.10;23.80;;;;;;;-3.85;100.00;100458.81;106211;1290;75075;-81
2023/01/30 19:24:52;;;;;;;61.50;21.80;;;;;;;-3.71;100.00;100457.62;105784;1292;73774;-81
2023/01/30 19:27:24;;;;;;;62.90;23.30;;;;;;;-3.59;100.00;100456.70;105979;1290;58217;-81
2023/01/30 19:29:50;;;;;;;56.90;20.90;;;;;;;-3.49;100.00;100452.69;106434;1293;61345;-81
2023/01/30 19:32:16;;;;;;;54.50;20.90;;;;;;;-3.40;100.00;100455.88;106136;1291;58279;-82
2023/01/30 19:34:42;;;;;;;61.20;21.50;;;;;;;-3.31;100.00;100452.91;106135;1291;58256;-81
2023/01/30 19:37:13;;;;;;;62.30;21.20;;;;;;;-3.21;100.00;100451.80;106214;1291;58255;-80
2023/01/30 19:39:42;;;;;;;60.50;21.20;;;;;;;-3.11;100.00;100457.38;106116;1291;62828;-81
2023/01/30 19:42:08;;;;;;;56.70;21.10;;;;;;;-3.02;100.00;100463.48;106102;1292;61566;-81
2023/01/30 19:44:39;;;;;;;63.60;23.10;;;;;;;-2.94;100.00;100464.91;106168;1291;58191;-81
2023/01/30 19:47:07;;;;;;;61.90;22.40;;;;;;;-2.86;100.00;100463.69;106166;1291;74180;-81
2023/01/30 19:49:33;;;;;;;58.80;21.60;;;;;;;-2.78;100.00;100462.89;106205;1288;71795;-81
2023/01/30 19:52:02;;;;;;;65.00;22.30;;;;;;;-2.69;100.00;100461.67;106146;1291;58272;-81
2023/01/30 19:54:27;;;;;;;67.50;23.60;;;;;;;-2.61;100.00;100461.48;106169;1288;61153;-80
2023/01/30 19:56:53;;;;;;;59.60;21.90;;;;;;;-2.54;100.00;100459.80;106255;1288;58393;-81
2023/01/30 19:59:19;;;;;;;77.50;24.70;;;;;;;-2.47;100.00;100458.66;106473;1288;58232;-81
2023/01/30 20:01:44;;;;;;;69.30;23.10;;;;;;;-2.40;100.00;100462.00;106060;1288;58955;-81
2023/01/30 20:04:10;;;;;;;71.30;23.90;;;;;;;-2.34;100.00;100458.80;106322;1289;58114;-82
2023/01/30 20:06:37;;;;;;;88.10;27.40;;;;;;;-2.27;100.00;100456.52;106566;1288;58233;-82
2023/01/30 20:09:10;;;;;;;78.30;26.10;;;;;;;-2.22;100.00;100456.23;106256;1289;71931;-81
2023/01/30 20:11:38;;;;;;;74.60;26.30;;;;;;;-2.16;100.00;100455.41;106280;1287;72929;-81
2023/01/30 20:14:05;;;;;;;64.60;22.60;;;;;;;-2.10;100.00;100452.58;106301;1288;62273;-81
2023/01/30 20:16:33;;;;;;;67.00;23.30;;;;;;;-2.04;100.00;100451.36;106357;1289;60148;-82
2023/01/30 20:19:01;;;;;;;71.10;21.60;;;;;;;-2.00;100.00;100453.34;106516;1287;72931;-82
2023/01/30 20:21:32;;;;;;;68.50;20.90;;;;;;;-1.95;100.00;100455.85;106410;1289;73466;-81
2023/01/30 20:23:58;;;;;;;62.20;21.60;;;;;;;-1.90;100.00;100449.70;106041;1293;71543;-81
2023/01/30 20:26:27;;;;;;;50.80;17.70;;;;;;;-1.85;100.00;100451.19;105596;1296;60709;-82
2023/01/30 20:28:54;;;;;;;52.30;18.60;;;;;;;-1.80;100.00;100455.90;105720;1297;60547;-81
2023/01/30 20:31:22;;;;;;;59.20;18.30;;;;;;;-1.74;100.00;100458.92;105711;1296;73799;-81
2023/01/30 20:33:48;;;;;;;64.10;20.40;;;;;;;-1.70;100.00;100459.48;105739;1296;74368;-81
2023/01/30 20:36:17;;;;;;;58.70;18.00;;;;;;;-1.67;100.00;100458.27;105724;1294;58306;-81
2023/01/30 20:38:44;;;;;;;54.50;18.40;;;;;;;-1.67;100.00;100450.96;105812;1295;60963;-82
2023/01/30 20:41:13;;;;;;;49.40;16.60;;;;;;;-1.62;100.00;100455.13;105823;1294;61221;-81
2023/01/30 20:43:43;;;;;;;46.10;17.00;;;;;;;-1.58;100.00;100457.52;105870;1295;74368;-81
2023/01/30 20:46:18;;;;;;;43.40;15.60;;;;;;;-1.55;100.00;100457.60;105953;1294;74456;-82
2023/01/30 20:48:44;;;;;;;40.90;14.80;;;;;;;-1.53;100.00;100453.55;105581;1299;72519;-81
2023/01/30 20:51:12;;;;;;;44.90;15.30;;;;;;;-1.50;100.00;100448.11;105493;1303;58188;-82
2023/01/30 20:53:39;;;;;;;40.20;14.90;;;;;;;-1.47;100.00;100448.46;105498;1299;60051;-81
2023/01/30 20:56:06;;;;;;;42.90;16.30;;;;;;;-1.46;100.00;100447.93;105797;1293;72111;-82
2023/01/30 20:58:32;;;;;;;42.90;14.80;;;;;;;-1.44;100.00;100442.54;105868;1292;58289;-81
2023/01/30 21:01:11;;;;;;;42.90;14.90;;;;;;;-1.40;100.00;100444.95;106102;1290;58196;-81
2023/01/30 21:03:41;;;;;;;41.70;14.90;;;;;;;-1.37;100.00;100444.42;106144;1292;62247;-81
2023/01/30 21:06:06;;;;;;;33.80;12.20;;;;;;;-1.36;100.00;100438.94;106125;1292;60118;-81
2023/01/30 21:08:33;;;;;;;31.30;11.80;;;;;;;-1.33;100.00;100434.13;106194;1286;58239;-82
2023/01/30 21:11:13;;;;;;;35.40;12.40;;;;;;;-1.32;100.00;100431.99;106539;1286;58230;-81
2023/01/30 21:13:40;;;;;;;30.20;11.00;;;;;;;-1.30;100.00;100433.84;106608;1286;73492;-80